Portada
METAR-TAF:

METAR-TAF

Aeroports :

El Papalon

San Miguel, El Salvador

latitud: 13-27N, longitud: 088-07W, altitud: 80 m

Observació

L'informe es va fer fa 6 hores i 33 minuts, a les 22:50 UTC
Vent 4 kt del Sud/Sud-Est
Temperatura 27°C
Humitat 84%
Pressió 1008 hPa
Visibilitat 10 km o més
Núvols disperses a una alçada de 2000 ft
Cel ennuvolat a una alçada de 20000 ft
Escasses núvols a una alçada de 3300 ft, Cumulonimbus.
plugim, xàfecs en les proximitats

METAR: MSSM 272250Z 15004KT 9999 -DZ VCSH SCT020 BKN200 FEW033CB 27/24 Q1008 A2978

Hora: 23:23 (05:23 UTC)


TAF: manca

Observacions i pronòstics meteorològics de més de 4000 aeroports (METAR i TAF).

Les estacions disponibles són els punts grocs i vermells al mapa.

Posi el ratolí al punt desitjat per veure el nom de l'estació.

Feu clic per veure les observacions i els pronòstics meteorològics.

Per canviar el mapa: feu clic els botons verds amb una creu de color negre per apropar; al botó verd amb un guió per allunyar la imatge; o en les fletxes verdes per a mapes adjacents.


METAR-TAF: